createdAt,value
2016-05-14T00:00:26.249Z,0
2016-05-14T00:01:26.236Z,0
2016-05-14T00:02:26.224Z,0
2016-05-14T00:03:26.366Z,0
2016-05-14T00:04:26.230Z,0
2016-05-14T00:05:26.215Z,0
2016-05-14T00:06:26.219Z,0
2016-05-14T00:07:26.205Z,0
2016-05-14T00:08:26.193Z,0
2016-05-14T00:09:26.195Z,0
2016-05-14T00:10:26.198Z,0
2016-05-14T00:11:26.185Z,0
2016-05-14T00:12:26.032Z,0
2016-05-14T00:13:26.160Z,0
2016-05-14T00:14:25.849Z,0
2016-05-14T00:15:26.149Z,0
2016-05-14T00:16:26.151Z,0
2016-05-14T00:17:25.999Z,0
2016-05-14T00:18:26.345Z,0
2016-05-14T00:19:25.988Z,0
2016-05-14T00:20:25.975Z,0
2016-05-14T00:21:25.978Z,0
2016-05-14T00:22:26.121Z,0
2016-05-14T00:23:25.812Z,0
2016-05-14T00:24:26.126Z,0
2016-05-14T00:25:25.956Z,0
2016-05-14T00:26:26.100Z,0
2016-05-14T00:27:26.103Z,0
2016-05-14T00:28:26.090Z,0
2016-05-14T00:29:26.092Z,0
2016-05-14T00:30:26.080Z,0
2016-05-14T00:31:25.770Z,0
2016-05-14T00:32:25.914Z,0
2016-05-14T00:33:26.072Z,0
2016-05-14T00:34:26.074Z,0
2016-05-14T00:35:25.906Z,0
2016-05-14T00:36:27.236Z,0
2016-05-14T00:37:28.021Z,0
2016-05-14T00:38:26.039Z,0
2016-05-14T00:39:27.291Z,0
2016-05-14T00:40:27.076Z,0
2016-05-14T00:41:26.563Z,0
2016-05-14T00:42:25.862Z,0
2016-05-14T00:43:25.865Z,0
2016-05-14T00:44:26.007Z,0
2016-05-14T00:45:28.277Z,0
2016-05-14T00:46:27.905Z,0
2016-05-14T00:47:26.548Z,0
2016-05-14T00:48:25.551Z,0
2016-05-14T00:49:25.990Z,0
2016-05-14T00:50:26.681Z,0
2016-05-14T00:51:25.995Z,0
2016-05-14T00:52:25.951Z,0
2016-05-14T00:53:25.970Z,0
2016-05-14T00:54:25.848Z,0
2016-05-14T00:55:25.820Z,0
2016-05-14T00:56:25.790Z,0
2016-05-14T00:57:25.777Z,0
2016-05-14T00:58:25.936Z,0
2016-05-14T00:59:25.783Z,0
2016-05-14T01:00:25.770Z,0
2016-05-14T01:01:26.273Z,0
2016-05-14T01:02:26.166Z,0
2016-05-14T01:03:25.778Z,0
2016-05-14T01:04:26.093Z,0
2016-05-14T01:05:25.736Z,0
2016-05-14T01:06:25.739Z,0
2016-05-14T01:07:26.227Z,0
2016-05-14T01:08:26.480Z,0
2016-05-14T01:09:25.872Z,0
2016-05-14T01:10:25.875Z,0
2016-05-14T01:11:26.002Z,0
2016-05-14T01:12:26.802Z,0
2016-05-14T01:13:26.743Z,0
2016-05-14T01:14:26.182Z,0
2016-05-14T01:15:25.686Z,0
2016-05-14T01:16:26.079Z,0
2016-05-14T01:17:25.831Z,0
2016-05-14T01:18:25.991Z,0
2016-05-14T01:19:25.821Z,0
2016-05-14T01:20:25.823Z,0
2016-05-14T01:21:25.795Z,0
2016-05-14T01:22:25.798Z,0
2016-05-14T01:23:25.629Z,0
2016-05-14T01:24:25.787Z,0
2016-05-14T01:25:25.775Z,0
2016-05-14T01:26:25.778Z,0
2016-05-14T01:27:25.623Z,0
2016-05-14T01:28:25.783Z,0
2016-05-14T01:29:25.614Z,0
2016-05-14T01:30:25.461Z,0
2016-05-14T01:31:25.448Z,0
2016-05-14T01:32:25.747Z,0
2016-05-14T01:33:26.140Z,0
2016-05-14T01:34:25.737Z,0
2016-05-14T01:35:25.724Z,0
2016-05-14T01:36:25.726Z,0
2016-05-14T01:37:25.729Z,0
2016-05-14T01:38:25.716Z,0
2016-05-14T01:39:27.375Z,0
2016-05-14T01:40:25.703Z,0
2016-05-14T01:41:25.377Z,0
2016-05-14T01:42:25.694Z,0
2016-05-14T01:43:25.679Z,0
2016-05-14T01:44:25.713Z,0
2016-05-14T01:45:25.685Z,0
2016-05-14T01:46:25.532Z,0
2016-05-14T01:47:25.660Z,0
2016-05-14T01:48:25.568Z,0
2016-05-14T01:49:25.493Z,0
2016-05-14T01:50:25.636Z,0
2016-05-14T01:51:25.655Z,0
2016-05-14T01:52:25.173Z,0
2016-05-14T01:53:25.629Z,0
2016-05-14T01:54:25.631Z,0
2016-05-14T01:55:25.993Z,0
2016-05-14T01:56:26.106Z,0
2016-05-14T01:57:25.998Z,0
2016-05-14T01:58:25.612Z,0
2016-05-14T01:59:26.523Z,0
2016-05-14T02:00:25.445Z,0
2016-05-14T02:01:26.509Z,0
2016-05-14T02:02:25.575Z,0
2016-05-14T02:03:25.437Z,0
2016-05-14T02:04:27.583Z,0
2016-05-14T02:05:26.067Z,0
2016-05-14T02:06:27.072Z,0
2016-05-14T02:07:25.541Z,0
2016-05-14T02:08:26.606Z,0
2016-05-14T02:09:26.063Z,0
2016-05-14T02:10:25.409Z,0
2016-05-14T02:11:25.521Z,0
2016-05-14T02:12:25.367Z,0
2016-05-14T02:13:25.510Z,0
2016-05-14T02:14:25.513Z,0
2016-05-14T02:15:25.500Z,0
2016-05-14T02:16:25.488Z,0
2016-05-14T02:17:25.335Z,0
2016-05-14T02:18:25.883Z,0
2016-05-14T02:19:25.324Z,0
2016-05-14T02:20:27.485Z,0
2016-05-14T02:21:39.754Z,0
2016-05-14T02:22:26.051Z,0
2016-05-14T02:23:26.428Z,0
2016-05-14T02:24:26.478Z,0
2016-05-14T02:25:39.687Z,0
2016-05-14T02:26:25.577Z,0
2016-05-14T02:27:25.376Z,0
2016-05-14T02:28:25.425Z,0
2016-05-14T02:29:25.273Z,0
2016-05-14T02:30:27.088Z,0
2016-05-14T02:31:39.593Z,0
2016-05-14T02:32:40.034Z,0
2016-05-14T02:33:25.721Z,0
2016-05-14T02:34:26.005Z,0
2016-05-14T02:35:25.586Z,0
2016-05-14T02:36:25.275Z,0
2016-05-14T02:37:28.562Z,0
2016-05-14T02:38:25.219Z,0
2016-05-14T02:39:25.409Z,0
2016-05-14T02:40:25.225Z,0
2016-05-14T02:41:25.258Z,0
2016-05-14T02:42:25.260Z,0
2016-05-14T02:43:25.357Z,0
2016-05-14T02:44:25.250Z,0
2016-05-14T02:45:25.019Z,0
2016-05-14T02:46:25.396Z,0
2016-05-14T02:47:25.180Z,0
2016-05-14T02:48:25.199Z,0
2016-05-14T02:49:25.326Z,0
2016-05-14T02:50:25.141Z,0
2016-05-14T02:51:25.143Z,0
2016-05-14T02:52:25.287Z,0
2016-05-14T02:53:25.307Z,0
2016-05-14T02:54:25.292Z,0
2016-05-14T02:55:25.279Z,0
2016-05-14T02:56:25.267Z,0
2016-05-14T02:57:25.254Z,0
2016-05-14T02:58:25.257Z,0
2016-05-14T02:59:25.259Z,5
2016-05-14T03:00:25.090Z,5
2016-05-14T03:01:25.092Z,5
2016-05-14T03:02:25.236Z,5
2016-05-14T03:03:25.458Z,5
2016-05-14T03:04:25.226Z,5
2016-05-14T03:05:25.213Z,5
2016-05-14T03:06:25.216Z,5
2016-05-14T03:07:25.219Z,10
2016-05-14T03:08:25.221Z,10
2016-05-14T03:09:25.208Z,10
2016-05-14T03:10:25.039Z,10
2016-05-14T03:11:25.182Z,10
2016-05-14T03:12:25.200Z,15
2016-05-14T03:13:25.188Z,15
2016-05-14T03:14:27.253Z,15
2016-05-14T03:15:27.099Z,15
2016-05-14T03:16:26.149Z,20
2016-05-14T03:17:25.011Z,20
2016-05-14T03:18:25.763Z,20
2016-05-14T03:19:25.751Z,25
2016-05-14T03:20:25.143Z,25
2016-05-14T03:21:25.146Z,25
2016-05-14T03:22:24.821Z,25
2016-05-14T03:23:26.137Z,25
2016-05-14T03:24:27.358Z,30
2016-05-14T03:25:25.126Z,30
2016-05-14T03:26:25.113Z,30
2016-05-14T03:27:25.787Z,30
2016-05-14T03:28:24.946Z,30
2016-05-14T03:29:25.262Z,30
2016-05-14T03:30:24.780Z,30
2016-05-14T03:31:25.252Z,30
2016-05-14T03:32:25.082Z,30
2016-05-14T03:33:25.039Z,30
2016-05-14T03:34:25.072Z,30
2016-05-14T03:35:24.903Z,30
2016-05-14T03:36:24.906Z,35
2016-05-14T03:37:24.908Z,35
2016-05-14T03:38:25.036Z,40
2016-05-14T03:39:26.648Z,40
2016-05-14T03:40:25.636Z,45
2016-05-14T03:41:25.575Z,45
2016-05-14T03:42:39.206Z,50
2016-05-14T03:43:25.581Z,50
2016-05-14T03:44:25.224Z,55
2016-05-14T03:45:25.008Z,55
2016-05-14T03:46:24.854Z,60
2016-05-14T03:47:24.841Z,65
2016-05-14T03:48:26.282Z,60
2016-05-14T03:49:25.893Z,65
2016-05-14T03:50:25.193Z,70
2016-05-14T03:51:26.180Z,70
2016-05-14T03:52:24.824Z,75
2016-05-14T03:53:24.873Z,80
2016-05-14T03:54:24.813Z,85
2016-05-14T03:55:24.957Z,90
2016-05-14T03:56:24.803Z,95
2016-05-14T03:57:24.963Z,100
2016-05-14T03:58:24.948Z,105
2016-05-14T03:59:24.936Z,110
2016-05-14T04:00:24.940Z,115
2016-05-14T04:01:24.785Z,120
2016-05-14T04:02:24.929Z,125
2016-05-14T04:03:24.853Z,135
2016-05-14T04:04:24.622Z,150
2016-05-14T04:05:24.921Z,140
2016-05-14T04:06:24.767Z,150
2016-05-14T04:07:24.911Z,150
2016-05-14T04:08:24.586Z,175
2016-05-14T04:09:24.745Z,190
2016-05-14T04:10:24.748Z,200
2016-05-14T04:11:24.734Z,210
2016-05-14T04:12:24.894Z,210
2016-05-14T04:13:24.739Z,225
2016-05-14T04:14:24.570Z,230
2016-05-14T04:15:24.869Z,235
2016-05-14T04:16:24.716Z,240
2016-05-14T04:17:24.875Z,245
2016-05-14T04:18:25.347Z,250
2016-05-14T04:19:24.708Z,250
2016-05-14T04:20:24.858Z,250
2016-05-14T04:21:24.904Z,260
2016-05-14T04:22:24.933Z,265
2016-05-14T04:23:24.979Z,275
2016-05-14T04:24:24.884Z,285
2016-05-14T04:25:24.754Z,240
2016-05-14T04:26:25.070Z,225
2016-05-14T04:27:25.087Z,265
2016-05-14T04:28:24.793Z,300
2016-05-14T04:29:25.124Z,335
2016-05-14T04:30:25.124Z,350
2016-05-14T04:31:24.993Z,350
2016-05-14T04:32:26.407Z,355
2016-05-14T04:33:26.275Z,360
2016-05-14T04:34:25.002Z,360
2016-05-14T04:35:26.244Z,365
2016-05-14T04:36:24.843Z,375
2016-05-14T04:37:25.801Z,380
2016-05-14T04:38:25.305Z,385
2016-05-14T04:39:25.482Z,375
2016-05-14T04:40:25.158Z,395
2016-05-14T04:41:25.162Z,375
2016-05-14T04:42:26.743Z,320
2016-05-14T04:43:25.278Z,315
2016-05-14T04:44:25.188Z,415
2016-05-14T04:45:25.863Z,445
2016-05-14T04:46:25.475Z,450
2016-05-14T04:47:25.557Z,445
2016-05-14T04:48:25.715Z,455
2016-05-14T04:49:25.188Z,470
2016-05-14T04:50:25.222Z,485
2016-05-14T04:51:25.177Z,500
2016-05-14T04:52:25.180Z,510
2016-05-14T04:53:25.182Z,510
2016-05-14T04:54:25.045Z,510
2016-05-14T04:55:25.204Z,525
2016-05-14T04:56:25.191Z,535
2016-05-14T04:57:25.194Z,535
2016-05-14T04:58:26.353Z,540
2016-05-14T04:59:39.389Z,575
2016-05-14T05:00:39.798Z,590
2016-05-14T05:01:39.395Z,595
2016-05-14T05:02:25.754Z,600
2016-05-14T05:03:25.772Z,600
2016-05-14T05:04:25.479Z,610
2016-05-14T05:05:25.075Z,625
2016-05-14T05:06:25.078Z,635
2016-05-14T05:07:25.846Z,645
2016-05-14T05:08:25.192Z,650
2016-05-14T05:09:26.351Z,640
2016-05-14T05:10:25.260Z,655
2016-05-14T05:11:25.622Z,680
2016-05-14T05:12:25.516Z,690
2016-05-14T05:13:25.269Z,695
2016-05-14T05:14:25.287Z,700
2016-05-14T05:15:25.399Z,715
2016-05-14T05:16:25.292Z,740
2016-05-14T05:17:25.154Z,740
2016-05-14T05:18:25.328Z,760
2016-05-14T05:19:25.159Z,770
2016-05-14T05:20:25.319Z,780
2016-05-14T05:21:25.180Z,745
2016-05-14T05:22:25.339Z,755
2016-05-14T05:23:25.358Z,640
2016-05-14T05:24:25.204Z,470
2016-05-14T05:25:25.363Z,705
2016-05-14T05:26:25.365Z,500
2016-05-14T05:27:25.368Z,720
2016-05-14T05:28:25.387Z,540
2016-05-14T05:29:25.390Z,880
2016-05-14T05:30:25.251Z,550
2016-05-14T05:31:25.410Z,590
2016-05-14T05:32:25.273Z,850
2016-05-14T05:33:26.118Z,540
2016-05-14T05:34:25.121Z,490
2016-05-14T05:35:25.281Z,475
2016-05-14T05:36:25.283Z,505
2016-05-14T05:37:25.458Z,460
2016-05-14T05:38:25.304Z,1010
2016-05-14T05:39:25.478Z,1090
2016-05-14T05:40:25.481Z,1010
2016-05-14T05:41:25.499Z,950
2016-05-14T05:42:25.486Z,950
2016-05-14T05:43:25.490Z,965
2016-05-14T05:44:25.492Z,1000
2016-05-14T05:45:25.339Z,1015
2016-05-14T05:46:25.513Z,1050
2016-05-14T05:47:25.547Z,1050
2016-05-14T05:48:25.253Z,1075
2016-05-14T05:49:25.536Z,1090
2016-05-14T05:50:25.383Z,1100
2016-05-14T05:51:27.104Z,1110
2016-05-14T05:52:27.405Z,1130
2016-05-14T05:53:25.611Z,1150
2016-05-14T05:54:26.441Z,1170
2016-05-14T05:55:26.210Z,1180
2016-05-14T05:56:25.446Z,1205
2016-05-14T05:57:25.590Z,1225
2016-05-14T05:58:25.436Z,1250
2016-05-14T05:59:25.454Z,1255
2016-05-14T06:00:25.473Z,1265
2016-05-14T06:01:26.725Z,1285
2016-05-14T06:02:26.510Z,1295
2016-05-14T06:03:26.012Z,1310
2016-05-14T06:04:26.249Z,1355
2016-05-14T06:05:26.346Z,1320
2016-05-14T06:06:26.286Z,1270
2016-05-14T06:07:25.695Z,1295
2016-05-14T06:08:25.948Z,1340
2016-05-14T06:09:25.387Z,1350
2016-05-14T06:10:25.406Z,1360
2016-05-14T06:11:25.736Z,1385
2016-05-14T06:12:25.442Z,1390
2016-05-14T06:13:25.758Z,1370
2016-05-14T06:14:25.761Z,1060
2016-05-14T06:15:25.764Z,1375
2016-05-14T06:16:25.781Z,1435
2016-05-14T06:17:40.739Z,885
2016-05-14T06:18:25.583Z,1265
2016-05-14T06:19:26.414Z,1570
2016-05-14T06:20:25.682Z,1040
2016-05-14T06:21:25.841Z,805
2016-05-14T06:22:26.063Z,820
2016-05-14T06:23:25.707Z,795
2016-05-14T06:24:25.866Z,775
2016-05-14T06:25:25.883Z,1480
2016-05-14T06:26:40.826Z,950
2016-05-14T06:27:26.013Z,880
2016-05-14T06:28:26.470Z,760
2016-05-14T06:29:26.379Z,695
2016-05-14T06:30:25.787Z,675
2016-05-14T06:31:26.087Z,590
2016-05-14T06:32:26.215Z,530
2016-05-14T06:33:26.843Z,470
2016-05-14T06:34:25.830Z,455
2016-05-14T06:35:25.989Z,450
2016-05-14T06:36:26.007Z,480
2016-05-14T06:37:25.853Z,385
2016-05-14T06:38:26.028Z,345
2016-05-14T06:39:26.046Z,350
2016-05-14T06:40:26.033Z,350
2016-05-14T06:41:26.036Z,375
2016-05-14T06:42:26.053Z,390
2016-05-14T06:43:26.088Z,410
2016-05-14T06:44:26.060Z,435
2016-05-14T06:45:26.062Z,490
2016-05-14T06:46:26.081Z,575
2016-05-14T06:47:26.099Z,595
2016-05-14T06:48:26.539Z,535
2016-05-14T06:49:25.964Z,600
2016-05-14T06:50:26.107Z,710
2016-05-14T06:51:26.110Z,1945
2016-05-14T06:52:25.955Z,795
2016-05-14T06:53:25.959Z,2055
2016-05-14T06:54:25.822Z,825
2016-05-14T06:55:26.136Z,850
2016-05-14T06:56:26.139Z,730
2016-05-14T06:57:26.126Z,1880
2016-05-14T06:58:26.144Z,1960
2016-05-14T06:59:26.007Z,1000
2016-05-14T07:00:26.149Z,1995
2016-05-14T07:01:26.152Z,750
2016-05-14T07:02:26.170Z,695
2016-05-14T07:03:26.532Z,590
2016-05-14T07:04:26.176Z,700
2016-05-14T07:05:26.178Z,775
2016-05-14T07:06:26.198Z,555
2016-05-14T07:07:26.028Z,495
2016-05-14T07:08:26.203Z,505
2016-05-14T07:09:26.206Z,535
2016-05-14T07:10:27.536Z,575
2016-05-14T07:11:28.757Z,640
2016-05-14T07:12:26.509Z,610
2016-05-14T07:13:26.637Z,530
2016-05-14T07:14:26.062Z,505
2016-05-14T07:15:26.659Z,575
2016-05-14T07:16:26.240Z,655
2016-05-14T07:17:26.273Z,605
2016-05-14T07:18:26.276Z,630
2016-05-14T07:19:27.045Z,655
2016-05-14T07:20:28.953Z,675
2016-05-14T07:21:27.816Z,900
2016-05-14T07:22:26.427Z,780
2016-05-14T07:23:26.993Z,1140
2016-05-14T07:24:26.808Z,845
2016-05-14T07:25:26.561Z,680
2016-05-14T07:26:26.283Z,750
2016-05-14T07:27:26.284Z,660
2016-05-14T07:28:26.288Z,695
2016-05-14T07:29:26.306Z,565
2016-05-14T07:30:26.137Z,495
2016-05-14T07:31:26.311Z,490
2016-05-14T07:32:26.313Z,540
2016-05-14T07:33:26.973Z,525
2016-05-14T07:34:26.648Z,545
2016-05-14T07:35:29.634Z,645
2016-05-14T07:36:26.856Z,620
2016-05-14T07:37:26.156Z,525
2016-05-14T07:38:26.768Z,490
2016-05-14T07:39:40.210Z,525
2016-05-14T07:40:26.382Z,600
2016-05-14T07:41:26.182Z,590
2016-05-14T07:42:26.434Z,575
2016-05-14T07:43:26.327Z,620
2016-05-14T07:44:26.346Z,560
2016-05-14T07:45:27.145Z,510
2016-05-14T07:46:27.398Z,480
2016-05-14T07:47:26.839Z,450
2016-05-14T07:48:27.342Z,460
2016-05-14T07:49:26.970Z,475
2016-05-14T07:50:26.597Z,515
2016-05-14T07:51:26.365Z,570
2016-05-14T07:52:26.367Z,550
2016-05-14T07:53:26.214Z,565
2016-05-14T07:54:26.202Z,515
2016-05-14T07:55:26.219Z,535
2016-05-14T07:56:26.363Z,560
2016-05-14T07:57:26.366Z,535
2016-05-14T07:58:26.368Z,560
2016-05-14T07:59:26.371Z,665
2016-05-14T08:00:26.374Z,765
2016-05-14T08:01:26.377Z,815
2016-05-14T08:02:26.379Z,820
2016-05-14T08:03:26.085Z,685
2016-05-14T08:04:26.229Z,665
2016-05-14T08:05:26.371Z,600
2016-05-14T08:06:26.374Z,615
2016-05-14T08:07:26.392Z,565
2016-05-14T08:08:26.379Z,495
2016-05-14T08:09:26.398Z,420
2016-05-14T08:10:26.385Z,380
2016-05-14T08:11:26.388Z,370
2016-05-14T08:12:26.234Z,370
2016-05-14T08:13:26.408Z,340
2016-05-14T08:14:26.223Z,360
2016-05-14T08:15:26.086Z,460
2016-05-14T08:16:26.245Z,530
2016-05-14T08:17:26.091Z,620
2016-05-14T08:18:26.266Z,670
2016-05-14T08:19:26.425Z,660
2016-05-14T08:20:26.396Z,600
2016-05-14T08:21:26.430Z,565
2016-05-14T08:22:26.402Z,660
2016-05-14T08:23:26.420Z,800
2016-05-14T08:24:26.407Z,595
2016-05-14T08:25:26.410Z,535
2016-05-14T08:26:26.256Z,425
2016-05-14T08:27:26.415Z,395
2016-05-14T08:28:26.261Z,380
2016-05-14T08:29:27.966Z,355
2016-05-14T08:30:26.688Z,345
2016-05-14T08:31:26.660Z,330
2016-05-14T08:32:26.257Z,395
2016-05-14T08:33:27.244Z,360
2016-05-14T08:34:27.185Z,310
2016-05-14T08:35:26.265Z,315
2016-05-14T08:36:26.752Z,425
2016-05-14T08:37:26.426Z,540
2016-05-14T08:38:28.241Z,580
2016-05-14T08:39:27.479Z,990
2016-05-14T08:40:26.434Z,705
2016-05-14T08:41:26.749Z,550
2016-05-14T08:42:26.549Z,525
2016-05-14T08:43:26.942Z,510
2016-05-14T08:44:27.507Z,535
2016-05-14T08:45:26.635Z,605
2016-05-14T08:46:26.435Z,695
2016-05-14T08:47:26.422Z,650
2016-05-14T08:48:26.722Z,495
2016-05-14T08:49:26.740Z,495
2016-05-14T08:50:26.445Z,615
2016-05-14T08:51:26.292Z,690
2016-05-14T08:52:26.450Z,620
2016-05-14T08:53:26.453Z,625
2016-05-14T08:54:26.956Z,675
2016-05-14T08:55:26.459Z,600
2016-05-14T08:56:27.008Z,585
2016-05-14T08:57:27.089Z,570
2016-05-14T08:58:41.080Z,595
2016-05-14T08:59:26.611Z,625
2016-05-14T09:00:26.457Z,640
2016-05-14T09:01:26.460Z,680
2016-05-14T09:02:26.555Z,655
2016-05-14T09:03:26.652Z,600
2016-05-14T09:04:27.343Z,565
2016-05-14T09:05:26.735Z,630
2016-05-14T09:06:26.457Z,780
2016-05-14T09:07:26.912Z,975
2016-05-14T09:08:26.526Z,985
2016-05-14T09:09:26.669Z,960
2016-05-14T09:10:26.327Z,920
2016-05-14T09:11:26.315Z,870
2016-05-14T09:12:26.473Z,820
2016-05-14T09:13:26.492Z,815
2016-05-14T09:14:26.479Z,740
2016-05-14T09:15:26.325Z,705
2016-05-14T09:16:26.172Z,775
2016-05-14T09:17:26.345Z,710
2016-05-14T09:18:27.552Z,665
2016-05-14T09:19:26.649Z,670
2016-05-14T09:20:26.338Z,730
2016-05-14T09:21:26.201Z,740
2016-05-14T09:22:26.531Z,675
2016-05-14T09:23:26.503Z,640
2016-05-14T09:24:26.506Z,670
2016-05-14T09:25:26.352Z,745
2016-05-14T09:26:26.527Z,780
2016-05-14T09:27:26.372Z,800
2016-05-14T09:28:26.375Z,810
2016-05-14T09:29:26.519Z,770
2016-05-14T09:30:26.380Z,760
2016-05-14T09:31:26.384Z,785
2016-05-14T09:32:26.543Z,845
2016-05-14T09:33:26.718Z,880
2016-05-14T09:34:26.939Z,880
2016-05-14T09:35:26.551Z,855
2016-05-14T09:36:26.554Z,805
2016-05-14T09:37:26.571Z,755
2016-05-14T09:38:26.559Z,735
2016-05-14T09:39:26.405Z,730
2016-05-14T09:40:26.407Z,690
2016-05-14T09:41:26.254Z,745
2016-05-14T09:42:26.584Z,760
2016-05-14T09:43:26.587Z,665
2016-05-14T09:44:26.591Z,580
2016-05-14T09:45:26.578Z,580
2016-05-14T09:46:26.456Z,610
2016-05-14T09:47:26.598Z,665
2016-05-14T09:48:27.820Z,690
2016-05-14T09:49:27.604Z,775
2016-05-14T09:50:26.872Z,820
2016-05-14T09:51:27.484Z,840
2016-05-14T09:52:26.456Z,855
2016-05-14T09:53:26.614Z,865
2016-05-14T09:54:26.461Z,870
2016-05-14T09:55:26.620Z,880
2016-05-14T09:56:26.623Z,890
2016-05-14T09:57:27.407Z,785
2016-05-14T09:58:28.613Z,700
2016-05-14T09:59:26.631Z,775
2016-05-14T10:00:26.665Z,795
2016-05-14T10:01:27.418Z,740
2016-05-14T10:02:26.499Z,725
2016-05-14T10:03:27.423Z,705
2016-05-14T10:04:26.785Z,705
2016-05-14T10:05:26.663Z,755
2016-05-14T10:06:26.681Z,775
2016-05-14T10:07:26.668Z,760
2016-05-14T10:08:26.671Z,655
2016-05-14T10:09:26.690Z,595
2016-05-14T10:10:26.693Z,555
2016-05-14T10:11:26.678Z,560
2016-05-14T10:12:26.682Z,625
2016-05-14T10:13:26.701Z,705
2016-05-14T10:14:26.703Z,695
2016-05-14T10:15:26.706Z,690
2016-05-14T10:16:26.723Z,675
2016-05-14T10:17:26.726Z,645
2016-05-14T10:18:26.745Z,590
2016-05-14T10:19:26.637Z,525
2016-05-14T10:20:26.594Z,475
2016-05-14T10:21:26.580Z,440
2016-05-14T10:22:26.583Z,415
2016-05-14T10:23:26.431Z,405
2016-05-14T10:24:26.433Z,420
2016-05-14T10:25:26.748Z,435
2016-05-14T10:26:26.594Z,450
2016-05-14T10:27:26.613Z,445
2016-05-14T10:28:26.600Z,430
2016-05-14T10:29:26.758Z,415
2016-05-14T10:30:26.777Z,420
2016-05-14T10:31:26.639Z,445
2016-05-14T10:32:26.626Z,440
2016-05-14T10:33:27.129Z,455
2016-05-14T10:34:26.710Z,455
2016-05-14T10:35:26.774Z,440
2016-05-14T10:36:26.652Z,425
2016-05-14T10:37:26.640Z,415
2016-05-14T10:38:26.643Z,405
2016-05-14T10:39:26.786Z,390
2016-05-14T10:40:26.476Z,375
2016-05-14T10:41:26.791Z,380
2016-05-14T10:42:26.810Z,395
2016-05-14T10:43:26.656Z,395
2016-05-14T10:44:26.643Z,390
2016-05-14T10:45:26.661Z,375
2016-05-14T10:46:26.492Z,365
2016-05-14T10:47:26.807Z,365
2016-05-14T10:48:26.809Z,380
2016-05-14T10:49:26.922Z,410
2016-05-14T10:50:26.814Z,445
2016-05-14T10:51:26.802Z,425
2016-05-14T10:52:26.821Z,395
2016-05-14T10:53:26.667Z,375
2016-05-14T10:54:26.685Z,365
2016-05-14T10:55:26.828Z,365
2016-05-14T10:56:26.816Z,380
2016-05-14T10:57:26.834Z,390
2016-05-14T10:58:26.821Z,405
2016-05-14T10:59:26.824Z,420
2016-05-14T11:00:26.827Z,430
2016-05-14T11:01:26.830Z,450
2016-05-14T11:02:26.691Z,455
2016-05-14T11:03:27.225Z,460
2016-05-14T11:04:26.680Z,465
2016-05-14T11:05:26.840Z,450
2016-05-14T11:06:27.639Z,445
2016-05-14T11:07:26.938Z,450
2016-05-14T11:08:26.849Z,430
2016-05-14T11:09:27.225Z,440
2016-05-14T11:10:27.509Z,490
2016-05-14T11:11:27.044Z,570
2016-05-14T11:12:27.312Z,615
2016-05-14T11:13:27.846Z,595
2016-05-14T11:14:41.739Z,575
2016-05-14T11:15:26.710Z,575
2016-05-14T11:17:27.732Z,555
2016-05-14T11:18:41.859Z,540
2016-05-14T11:19:27.159Z,525
2016-05-14T11:20:27.818Z,480
2016-05-14T11:21:26.851Z,415
2016-05-14T11:22:27.886Z,390
2016-05-14T11:23:27.434Z,390
2016-05-14T11:24:26.719Z,415
2016-05-14T11:25:27.425Z,435
2016-05-14T11:26:41.053Z,450
2016-05-14T11:27:27.415Z,475
2016-05-14T11:28:27.120Z,445
2016-05-14T11:29:27.075Z,410
2016-05-14T11:30:26.875Z,385
2016-05-14T11:31:26.722Z,375
2016-05-14T11:32:26.866Z,360
2016-05-14T11:33:27.852Z,360
2016-05-14T11:34:27.261Z,385
2016-05-14T11:35:26.874Z,425
2016-05-14T11:36:26.877Z,465
2016-05-14T11:37:26.738Z,515
2016-05-14T11:38:26.882Z,565
2016-05-14T11:39:26.885Z,580
2016-05-14T11:40:26.715Z,555
2016-05-14T11:41:26.577Z,540
2016-05-14T11:42:26.892Z,540
2016-05-14T11:43:26.738Z,500
2016-05-14T11:44:26.898Z,430
2016-05-14T11:45:26.729Z,425
2016-05-14T11:46:26.887Z,470
2016-05-14T11:47:26.890Z,465
2016-05-14T11:48:27.002Z,440
2016-05-14T11:49:26.740Z,420
2016-05-14T11:50:26.742Z,365
2016-05-14T11:51:26.917Z,325
2016-05-14T11:52:26.748Z,310
2016-05-14T11:53:26.907Z,295
2016-05-14T11:54:26.753Z,285
2016-05-14T11:55:26.912Z,270
2016-05-14T11:56:26.930Z,290
2016-05-14T11:57:26.761Z,300
2016-05-14T11:58:26.920Z,310
2016-05-14T11:59:26.766Z,315
2016-05-14T12:00:26.909Z,320
2016-05-14T12:01:26.771Z,325
2016-05-14T12:02:26.774Z,340
2016-05-14T12:03:27.167Z,365
2016-05-14T12:04:26.780Z,385
2016-05-14T12:05:26.922Z,385
2016-05-14T12:06:26.769Z,370
2016-05-14T12:07:26.944Z,370
2016-05-14T12:08:26.915Z,380
2016-05-14T12:09:26.934Z,395
2016-05-14T12:10:26.795Z,390
2016-05-14T12:11:26.938Z,385
2016-05-14T12:12:26.941Z,390
2016-05-14T12:13:26.773Z,410
2016-05-14T12:14:26.932Z,420
2016-05-14T12:15:26.935Z,455
2016-05-14T12:16:26.938Z,475
2016-05-14T12:17:26.940Z,480
2016-05-14T12:18:26.833Z,500
2016-05-14T12:19:26.648Z,525
2016-05-14T12:20:26.620Z,540
2016-05-14T12:21:26.795Z,570
2016-05-14T12:22:26.937Z,585
2016-05-14T12:23:26.800Z,570
2016-05-14T12:24:26.943Z,585
2016-05-14T12:25:29.820Z,575
2016-05-14T12:26:28.808Z,550
2016-05-14T12:27:26.795Z,560
2016-05-14T12:28:27.250Z,585
2016-05-14T12:29:26.972Z,640
2016-05-14T12:30:27.037Z,680
2016-05-14T12:31:27.414Z,665
2016-05-14T12:32:27.855Z,625
2016-05-14T12:33:28.435Z,595
2016-05-14T12:34:41.375Z,570
2016-05-14T12:35:29.003Z,560
2016-05-14T12:36:28.381Z,580
2016-05-14T12:37:27.758Z,615
2016-05-14T12:38:28.215Z,630
2016-05-14T12:39:27.514Z,605
2016-05-14T12:40:27.299Z,590
2016-05-14T12:41:28.052Z,565
2016-05-14T12:42:26.960Z,525
2016-05-14T12:43:41.713Z,510
2016-05-14T12:44:27.466Z,465
2016-05-14T12:45:27.327Z,435
2016-05-14T12:46:27.080Z,420
2016-05-14T12:47:26.973Z,425
2016-05-14T12:48:27.163Z,435
2016-05-14T12:49:26.885Z,425
2016-05-14T12:50:26.981Z,430
2016-05-14T12:51:27.001Z,470
2016-05-14T12:52:27.003Z,520
2016-05-14T12:53:26.848Z,480
2016-05-14T12:54:27.023Z,455
2016-05-14T12:55:26.854Z,460
2016-05-14T12:56:27.014Z,445
2016-05-14T12:57:27.016Z,430
2016-05-14T12:58:26.847Z,405
2016-05-14T12:59:27.006Z,370
2016-05-14T13:00:26.852Z,340
2016-05-14T13:01:27.011Z,315
2016-05-14T13:02:26.873Z,290
2016-05-14T13:03:27.047Z,285
2016-05-14T13:04:27.269Z,290
2016-05-14T13:05:27.022Z,295
2016-05-14T13:06:27.056Z,305
2016-05-14T13:07:27.043Z,335
2016-05-14T13:08:27.030Z,365
2016-05-14T13:09:27.049Z,380
2016-05-14T13:10:27.035Z,385
2016-05-14T13:11:27.054Z,415
2016-05-14T13:12:27.041Z,420
2016-05-14T13:13:26.887Z,420
2016-05-14T13:14:27.030Z,430
2016-05-14T13:15:27.049Z,465
2016-05-14T13:16:27.099Z,490
2016-05-14T13:17:26.898Z,480
2016-05-14T13:18:27.651Z,480
2016-05-14T13:19:26.919Z,500
2016-05-14T13:20:27.062Z,535
2016-05-14T13:21:26.909Z,560
2016-05-14T13:22:27.068Z,575
2016-05-14T13:23:27.054Z,575
2016-05-14T13:24:26.760Z,515
2016-05-14T13:25:27.060Z,430
2016-05-14T13:26:27.060Z,385
2016-05-14T13:27:27.132Z,360
2016-05-14T13:28:27.158Z,335
2016-05-14T13:29:27.199Z,330
2016-05-14T13:30:27.241Z,330
2016-05-14T13:31:27.259Z,345
2016-05-14T13:32:27.277Z,380
2016-05-14T13:33:27.293Z,425
2016-05-14T13:34:28.013Z,445
2016-05-14T13:35:27.327Z,465
2016-05-14T13:36:27.200Z,485
2016-05-14T13:37:27.349Z,520
2016-05-14T13:38:27.199Z,550
2016-05-14T13:39:27.364Z,565
2016-05-14T13:40:27.215Z,560
2016-05-14T13:41:27.362Z,545
2016-05-14T13:42:27.383Z,500
2016-05-14T13:43:27.075Z,435
2016-05-14T13:44:29.282Z,380
2016-05-14T13:45:27.334Z,340
2016-05-14T13:46:27.651Z,310
2016-05-14T13:47:27.466Z,285
2016-05-14T13:48:28.267Z,270
2016-05-14T13:49:28.208Z,275
2016-05-14T13:50:27.961Z,270
2016-05-14T13:51:42.933Z,270
2016-05-14T13:52:27.249Z,275
2016-05-14T13:53:28.611Z,270
2016-05-14T13:54:28.863Z,275
2016-05-14T13:55:27.397Z,280
2016-05-14T13:56:28.229Z,295
2016-05-14T13:57:28.324Z,305
2016-05-14T13:58:27.921Z,310
2016-05-14T13:59:28.111Z,305
2016-05-14T14:00:28.318Z,315